createdAt,value
2022-11-05T00:01:18.546Z,4.68
2022-11-05T00:04:06.118Z,5.25
2022-11-05T00:11:00.744Z,5.03
2022-11-05T00:13:46.825Z,4.88
2022-11-05T00:16:34.875Z,6.20
2022-11-05T00:19:07.535Z,5.85
2022-11-05T00:21:57.435Z,5.50
2022-11-05T00:24:43.662Z,4.80
2022-11-05T00:27:12.472Z,5.10
2022-11-05T00:29:41.103Z,5.93
2022-11-05T00:32:09.546Z,5.68
2022-11-05T00:34:39.402Z,5.25
2022-11-05T00:37:07.784Z,5.47
2022-11-05T00:39:36.233Z,5.43
2022-11-05T00:42:22.470Z,5.22
2022-11-05T00:45:03.236Z,5.60
2022-11-05T00:47:50.599Z,5.40
2022-11-05T00:50:22.784Z,5.80
2022-11-05T00:52:59.541Z,5.35
2022-11-05T00:55:34.369Z,5.72
2022-11-05T00:58:05.115Z,5.75
2022-11-05T01:00:37.126Z,5.85
2022-11-05T01:03:09.734Z,5.75
2022-11-05T01:05:43.535Z,5.20
2022-11-05T01:08:13.610Z,5.80
2022-11-05T01:10:43.493Z,5.85
2022-11-05T01:13:13.642Z,5.00
2022-11-05T01:15:43.168Z,4.78
2022-11-05T01:18:12.143Z,5.43
2022-11-05T01:20:42.135Z,5.32
2022-11-05T01:23:13.754Z,5.05
2022-11-05T01:25:42.830Z,5.32
2022-11-05T01:28:12.142Z,6.00
2022-11-05T01:30:41.311Z,5.63
2022-11-05T01:33:10.371Z,5.85
2022-11-05T01:35:42.208Z,5.93
2022-11-05T01:38:10.529Z,6.07
2022-11-05T01:40:43.889Z,6.13
2022-11-05T01:43:17.829Z,6.00
2022-11-05T01:45:50.809Z,6.38
2022-11-05T01:48:22.747Z,5.93
2022-11-05T01:50:59.210Z,6.63
2022-11-05T01:53:32.099Z,7.50
2022-11-05T01:56:06.078Z,7.07
2022-11-05T01:58:41.993Z,7.22
2022-11-05T02:01:11.044Z,7.38
2022-11-05T02:03:39.932Z,7.05
2022-11-05T02:06:09.986Z,7.78
2022-11-05T02:08:55.124Z,7.68
2022-11-05T02:11:24.045Z,7.85
2022-11-05T02:13:53.246Z,8.02
2022-11-05T02:16:40.383Z,9.45
2022-11-05T02:19:46.177Z,8.55
2022-11-05T02:22:56.350Z,8.43
2022-11-05T02:26:15.672Z,8.75
2022-11-05T02:29:23.177Z,7.97
2022-11-05T02:32:02.301Z,9.35
2022-11-05T02:34:43.614Z,9.68
2022-11-05T02:37:21.449Z,9.10
2022-11-05T02:39:57.710Z,9.40
2022-11-05T02:42:36.759Z,9.43
2022-11-05T02:45:18.751Z,10.43
2022-11-05T02:47:53.235Z,9.00
2022-11-05T02:50:29.103Z,9.43
2022-11-05T02:53:04.470Z,10.30
2022-11-05T02:58:06.485Z,8.90
2022-11-05T03:00:51.459Z,9.75
2022-11-05T03:03:28.649Z,9.98
2022-11-05T03:06:41.817Z,9.90
2022-11-05T03:09:43.372Z,9.68
2022-11-05T03:12:31.818Z,9.85
2022-11-05T03:15:11.982Z,9.73
2022-11-05T03:17:52.898Z,9.02
2022-11-05T03:20:27.068Z,8.80
2022-11-05T03:23:02.272Z,9.10
2022-11-05T03:25:33.561Z,9.77
2022-11-05T03:28:07.381Z,9.52
2022-11-05T03:30:37.849Z,8.85
2022-11-05T03:33:12.817Z,8.57
2022-11-05T03:35:48.399Z,8.40
2022-11-05T03:40:54.972Z,8.40
2022-11-05T03:43:29.453Z,9.90
2022-11-05T03:46:03.787Z,9.70
2022-11-05T03:48:34.415Z,9.38
2022-11-05T03:51:11.769Z,9.93
2022-11-05T03:53:47.979Z,10.45
2022-11-05T03:56:25.035Z,11.73
2022-11-05T03:58:59.082Z,9.98
2022-11-05T04:01:28.672Z,10.07
2022-11-05T04:03:57.161Z,10.73
2022-11-05T04:06:44.566Z,10.00
2022-11-05T04:09:30.368Z,10.27
2022-11-05T04:12:16.389Z,10.40
2022-11-05T04:14:45.123Z,9.05
2022-11-05T04:17:12.586Z,11.10
2022-11-05T04:20:00.455Z,10.70
2022-11-05T04:22:50.224Z,9.88
2022-11-05T04:25:20.566Z,9.95
2022-11-05T04:27:50.165Z,9.05
2022-11-05T04:30:19.434Z,8.65
2022-11-05T04:32:59.961Z,8.98
2022-11-05T04:35:29.753Z,9.57
2022-11-05T04:37:59.458Z,8.50
2022-11-05T04:40:28.495Z,8.82
2022-11-05T04:42:57.643Z,8.63
2022-11-05T04:45:28.560Z,8.55
2022-11-05T04:47:57.010Z,8.38
2022-11-05T04:50:25.539Z,7.85
2022-11-05T04:52:54.071Z,8.05
2022-11-05T04:55:24.732Z,7.90
2022-11-05T04:57:55.120Z,7.82
2022-11-05T05:00:25.647Z,8.52
2022-11-05T05:02:54.408Z,9.32
2022-11-05T05:05:23.779Z,8.40
2022-11-05T05:07:52.360Z,9.40
2022-11-05T05:10:20.945Z,9.48
2022-11-05T05:12:50.895Z,8.63
2022-11-05T05:15:19.729Z,9.02
2022-11-05T05:17:52.646Z,9.00
2022-11-05T05:20:38.549Z,9.52
2022-11-05T05:23:07.083Z,9.48
2022-11-05T05:25:35.489Z,9.25
2022-11-05T05:28:05.506Z,9.40
2022-11-05T05:30:33.963Z,8.80
2022-11-05T05:33:04.748Z,9.45
2022-11-05T05:35:33.287Z,9.18
2022-11-05T05:38:01.623Z,8.82
2022-11-05T05:40:30.730Z,8.60
2022-11-05T05:43:01.474Z,9.35
2022-11-05T05:45:31.974Z,9.85
2022-11-05T05:48:00.661Z,9.23
2022-11-05T05:50:29.266Z,8.88
2022-11-05T05:52:58.237Z,8.68
2022-11-05T05:55:26.689Z,8.57
2022-11-05T05:57:56.247Z,8.18
2022-11-05T06:00:27.045Z,8.70
2022-11-05T06:02:58.801Z,8.40
2022-11-05T06:05:28.796Z,7.45
2022-11-05T06:07:58.063Z,7.40
2022-11-05T06:10:26.965Z,7.32
2022-11-05T06:13:06.586Z,6.97
2022-11-05T06:15:37.072Z,7.15
2022-11-05T06:18:06.936Z,6.85
2022-11-05T06:20:35.602Z,7.03
2022-11-05T06:23:04.064Z,7.78
2022-11-05T06:25:34.961Z,8.45
2022-11-05T06:28:06.780Z,7.47
2022-11-05T06:30:35.136Z,6.72
2022-11-05T06:33:06.181Z,7.20
2022-11-05T06:35:34.796Z,6.10
2022-11-05T06:38:03.866Z,6.75
2022-11-05T06:40:32.360Z,6.80
2022-11-05T06:43:00.823Z,6.93
2022-11-05T06:45:29.303Z,6.38
2022-11-05T06:47:59.218Z,6.47
2022-11-05T06:50:30.539Z,7.15
2022-11-05T06:53:01.126Z,6.75
2022-11-05T06:55:31.625Z,7.28
2022-11-05T06:58:00.207Z,7.20
2022-11-05T07:00:29.310Z,7.38
2022-11-05T07:03:04.833Z,7.13
2022-11-05T07:05:38.087Z,7.50
2022-11-05T07:08:08.298Z,6.85
2022-11-05T07:10:36.935Z,7.63
2022-11-05T07:13:08.478Z,7.88
2022-11-05T07:15:37.808Z,7.13
2022-11-05T07:18:07.750Z,8.10
2022-11-05T07:20:37.645Z,7.95
2022-11-05T07:23:09.500Z,8.05
2022-11-05T07:25:38.581Z,8.70
2022-11-05T07:28:08.332Z,8.93
2022-11-05T07:30:37.764Z,8.43
2022-11-05T07:33:06.761Z,8.32
2022-11-05T07:35:36.656Z,9.10
2022-11-05T07:38:06.552Z,9.57
2022-11-05T07:40:35.231Z,10.77
2022-11-05T07:43:03.889Z,10.60
2022-11-05T07:45:33.153Z,10.90
2022-11-05T07:48:04.510Z,11.25
2022-11-05T07:50:37.157Z,12.30
2022-11-05T07:53:08.650Z,11.88
2022-11-05T07:55:37.489Z,11.93
2022-11-05T07:58:06.211Z,12.93
2022-11-05T08:00:35.573Z,12.73
2022-11-05T08:03:09.723Z,12.50
2022-11-05T08:05:43.321Z,11.48
2022-11-05T08:08:15.409Z,11.30
2022-11-05T08:10:43.912Z,10.70
2022-11-05T08:13:13.348Z,10.25
2022-11-05T08:15:43.604Z,10.15
2022-11-05T08:18:15.049Z,9.98
2022-11-05T08:20:47.133Z,9.20
2022-11-05T08:23:16.007Z,9.65
2022-11-05T08:25:44.630Z,9.68
2022-11-05T08:28:14.669Z,8.77
2022-11-05T08:30:43.248Z,8.57
2022-11-05T08:33:14.206Z,8.27
2022-11-05T08:35:44.536Z,7.90
2022-11-05T08:38:15.619Z,7.82
2022-11-05T08:40:46.035Z,6.65
2022-11-05T08:43:15.901Z,6.88
2022-11-05T08:45:44.249Z,6.68
2022-11-05T08:48:15.567Z,7.10
2022-11-05T08:50:47.479Z,7.10
2022-11-05T08:53:16.487Z,7.05
2022-11-05T08:55:47.742Z,7.43
2022-11-05T08:58:17.571Z,5.00
2022-11-05T09:00:48.089Z,5.78
2022-11-05T09:03:17.653Z,6.28
2022-11-05T09:05:47.783Z,5.78
2022-11-05T09:08:18.930Z,6.22
2022-11-05T09:10:49.764Z,5.75
2022-11-05T09:13:20.043Z,5.25
2022-11-05T09:15:49.650Z,5.72
2022-11-05T09:18:18.959Z,5.50
2022-11-05T09:20:48.902Z,5.35
2022-11-05T09:23:17.437Z,5.20
2022-11-05T09:25:46.371Z,5.47
2022-11-05T09:28:18.107Z,6.07
2022-11-05T09:30:48.340Z,4.25
2022-11-05T09:33:18.332Z,4.18
2022-11-05T09:35:48.643Z,4.45
2022-11-05T09:38:17.400Z,4.10
2022-11-05T09:41:00.731Z,4.30
2022-11-05T09:43:35.760Z,4.03
2022-11-05T09:46:12.993Z,3.38
2022-11-05T09:48:43.557Z,3.63
2022-11-05T09:51:23.397Z,3.70
2022-11-05T09:53:53.695Z,3.78
2022-11-05T09:56:27.697Z,3.40
2022-11-05T09:59:03.075Z,3.63
2022-11-05T10:04:09.601Z,3.30
2022-11-05T10:06:55.253Z,4.28
2022-11-05T10:09:31.275Z,3.92
2022-11-05T10:12:07.592Z,3.63
2022-11-05T10:14:41.966Z,3.33
2022-11-05T10:17:21.086Z,3.45
2022-11-05T10:19:55.527Z,3.78
2022-11-05T10:22:26.791Z,3.70
2022-11-05T10:24:56.266Z,3.58
2022-11-05T10:27:31.758Z,3.67
2022-11-05T10:30:00.781Z,3.45
2022-11-05T10:32:36.048Z,3.80
2022-11-05T10:35:09.156Z,3.17
2022-11-05T10:37:41.039Z,3.45
2022-11-05T10:40:20.884Z,3.60
2022-11-05T10:43:03.765Z,3.65
2022-11-05T10:45:41.551Z,3.80
2022-11-05T10:48:43.860Z,4.40
2022-11-05T10:51:14.009Z,3.90
2022-11-05T10:53:57.372Z,4.22
2022-11-05T10:56:33.912Z,3.60
2022-11-05T10:59:07.929Z,3.83
2022-11-05T11:01:39.732Z,4.00
2022-11-05T11:04:17.453Z,3.60
2022-11-05T11:06:52.505Z,3.50
2022-11-05T11:09:28.959Z,3.60
2022-11-05T11:12:03.809Z,3.47
2022-11-05T11:14:32.679Z,3.75
2022-11-05T11:17:28.537Z,3.75
2022-11-05T11:20:27.477Z,3.55
2022-11-05T11:23:06.494Z,4.50
2022-11-05T11:25:46.597Z,3.72
2022-11-05T11:28:24.564Z,3.92
2022-11-05T11:31:04.762Z,3.80
2022-11-05T11:33:34.961Z,3.30
2022-11-05T11:36:03.673Z,2.90
2022-11-05T11:38:35.128Z,2.92
2022-11-05T11:41:27.062Z,3.03
2022-11-05T11:44:00.794Z,3.03
2022-11-05T11:46:34.401Z,3.40
2022-11-05T11:49:03.762Z,2.72
2022-11-05T11:51:40.476Z,2.88
2022-11-05T11:54:23.898Z,2.53
2022-11-05T11:56:57.449Z,2.40
2022-11-05T12:03:08.073Z,2.30
2022-11-05T12:05:46.963Z,2.75
2022-11-05T12:08:41.622Z,2.67
2022-11-05T12:11:24.763Z,2.75
2022-11-05T12:14:04.517Z,2.60
2022-11-05T12:17:09.583Z,3.20
2022-11-05T12:20:03.052Z,2.67
2022-11-05T12:22:44.836Z,3.25
2022-11-05T12:25:23.966Z,2.97
2022-11-05T12:28:15.906Z,2.60
2022-11-05T12:30:56.051Z,2.80
2022-11-05T12:33:36.529Z,2.80
2022-11-05T12:36:19.168Z,3.35
2022-11-05T12:39:24.096Z,3.65
2022-11-05T12:42:02.596Z,3.10
2022-11-05T12:44:56.478Z,3.17
2022-11-05T12:47:47.854Z,3.00
2022-11-05T12:50:26.393Z,2.92
2022-11-05T12:53:52.532Z,2.92
2022-11-05T12:56:27.904Z,2.80
2022-11-05T13:01:38.564Z,2.55
2022-11-05T13:04:27.635Z,3.00
2022-11-05T13:06:58.560Z,2.75
2022-11-05T13:09:34.615Z,2.90
2022-11-05T13:12:09.438Z,2.42
2022-11-05T13:14:44.718Z,2.85
2022-11-05T13:17:20.668Z,2.75
2022-11-05T13:19:58.942Z,2.70
2022-11-05T13:22:39.316Z,2.88
2022-11-05T13:25:18.483Z,2.70
2022-11-05T13:27:56.860Z,2.83
2022-11-05T13:30:31.111Z,2.67
2022-11-05T13:33:04.944Z,2.50
2022-11-05T13:35:49.312Z,3.05
2022-11-05T13:38:43.501Z,2.35
2022-11-05T13:41:28.400Z,3.28
2022-11-05T13:44:38.675Z,2.70
2022-11-05T13:48:00.588Z,3.28
2022-11-05T13:51:07.727Z,3.03
2022-11-05T13:54:00.417Z,3.17
2022-11-05T13:56:46.903Z,3.00
2022-11-05T13:59:52.080Z,3.40
2022-11-05T14:02:26.120Z,3.17
2022-11-05T14:05:01.414Z,2.90
2022-11-05T14:07:35.178Z,3.35
2022-11-05T14:10:36.558Z,3.10
2022-11-05T14:13:19.542Z,3.60
2022-11-05T14:16:11.503Z,3.83
2022-11-05T14:18:46.143Z,3.53
2022-11-05T14:21:45.584Z,3.28
2022-11-05T14:24:43.104Z,4.13
2022-11-05T14:27:46.718Z,3.60
2022-11-05T14:30:46.653Z,4.10
2022-11-05T14:33:32.520Z,3.28
2022-11-05T14:36:33.212Z,3.65
2022-11-05T14:39:19.699Z,3.03
2022-11-05T14:42:03.719Z,2.97
2022-11-05T14:44:35.388Z,3.25
2022-11-05T14:47:08.319Z,2.88
2022-11-05T14:49:46.938Z,3.90
2022-11-05T14:52:18.969Z,3.33
2022-11-05T14:54:52.689Z,3.17
2022-11-05T14:58:15.116Z,3.65
2022-11-05T15:00:49.217Z,3.70
2022-11-05T15:03:54.732Z,3.72
2022-11-05T15:06:32.298Z,3.60
2022-11-05T15:09:30.720Z,4.03
2022-11-05T15:12:11.279Z,3.75
2022-11-05T15:14:52.198Z,4.47
2022-11-05T15:17:30.309Z,4.05
2022-11-05T15:20:11.708Z,4.18
2022-11-05T15:22:44.477Z,4.50
2022-11-05T15:25:20.015Z,4.15
2022-11-05T15:28:11.942Z,3.95
2022-11-05T15:30:55.874Z,5.05
2022-11-05T15:33:27.322Z,4.35
2022-11-05T15:35:57.258Z,4.82
2022-11-05T15:38:34.486Z,4.88
2022-11-05T15:41:07.133Z,3.75
2022-11-05T15:43:36.414Z,3.50
2022-11-05T15:46:09.016Z,3.67
2022-11-05T15:48:40.941Z,3.53
2022-11-05T15:51:11.419Z,3.97
2022-11-05T15:56:58.764Z,3.70
2022-11-05T15:59:30.418Z,3.55
2022-11-05T16:02:44.780Z,3.67
2022-11-05T16:05:16.035Z,3.15
2022-11-05T16:07:47.551Z,3.50
2022-11-05T16:10:28.326Z,3.42
2022-11-05T16:12:58.860Z,3.67
2022-11-05T16:15:32.783Z,4.22
2022-11-05T16:18:02.234Z,3.88
2022-11-05T16:20:35.423Z,3.75
2022-11-05T16:23:07.960Z,4.60
2022-11-05T16:25:41.844Z,3.55
2022-11-05T16:28:23.842Z,4.28
2022-11-05T16:30:57.567Z,4.47
2022-11-05T16:33:30.920Z,4.60
2022-11-05T16:36:00.944Z,5.07
2022-11-05T16:38:29.765Z,4.80
2022-11-05T16:41:00.441Z,5.28
2022-11-05T16:43:29.429Z,4.60
2022-11-05T16:46:02.475Z,7.57
2022-11-05T16:48:31.678Z,5.38
2022-11-05T16:51:02.995Z,5.03
2022-11-05T16:53:31.708Z,5.40
2022-11-05T16:56:00.489Z,5.35
2022-11-05T16:58:29.440Z,5.75
2022-11-05T17:01:05.781Z,5.70
2022-11-05T17:03:34.459Z,5.10
2022-11-05T17:06:04.958Z,5.20
2022-11-05T17:08:34.328Z,5.22
2022-11-05T17:11:03.334Z,5.68
2022-11-05T17:13:36.505Z,5.63
2022-11-05T17:16:06.367Z,6.57
2022-11-05T17:18:36.012Z,6.80
2022-11-05T17:21:07.123Z,5.40
2022-11-05T17:23:40.107Z,5.80
2022-11-05T17:26:11.971Z,6.30
2022-11-05T17:28:42.009Z,5.85
2022-11-05T17:31:15.352Z,6.55
2022-11-05T17:33:46.553Z,5.85
2022-11-05T17:36:17.627Z,5.30
2022-11-05T17:38:47.255Z,6.20
2022-11-05T17:41:18.501Z,6.03
2022-11-05T17:43:48.409Z,6.72
2022-11-05T17:46:21.945Z,6.38
2022-11-05T17:48:50.996Z,5.65
2022-11-05T17:51:22.878Z,6.47
2022-11-05T17:53:51.632Z,6.07
2022-11-05T17:56:32.444Z,5.35
2022-11-05T17:59:02.593Z,5.88
2022-11-05T18:01:41.322Z,6.32
2022-11-05T18:04:10.463Z,5.88
2022-11-05T18:06:42.493Z,6.15
2022-11-05T18:09:16.127Z,6.95
2022-11-05T18:11:47.097Z,6.80
2022-11-05T18:17:01.618Z,6.15
2022-11-05T18:19:31.211Z,7.20
2022-11-05T18:22:01.372Z,6.55
2022-11-05T18:24:30.500Z,7.25
2022-11-05T18:27:00.726Z,6.82
2022-11-05T18:29:31.212Z,7.28
2022-11-05T18:32:00.030Z,7.55
2022-11-05T18:34:29.169Z,7.38
2022-11-05T18:37:03.923Z,8.00
2022-11-05T18:39:33.106Z,8.00
2022-11-05T18:42:02.663Z,7.78
2022-11-05T18:44:36.297Z,7.30
2022-11-05T18:47:08.377Z,7.15
2022-11-05T18:49:38.092Z,7.97
2022-11-05T18:52:32.046Z,7.20
2022-11-05T18:55:01.389Z,8.98
2022-11-05T18:57:29.975Z,7.85
2022-11-05T19:00:00.043Z,9.40
2022-11-05T19:02:29.968Z,8.15
2022-11-05T19:05:28.630Z,8.98
2022-11-05T19:07:49.983Z,7.72
2022-11-05T19:10:19.164Z,8.40
2022-11-05T19:12:48.369Z,7.95
2022-11-05T19:15:20.217Z,7.80
2022-11-05T19:17:49.627Z,7.13
2022-11-05T19:20:18.828Z,7.50
2022-11-05T19:22:50.971Z,7.18
2022-11-05T19:25:19.892Z,8.18
2022-11-05T19:27:49.300Z,7.60
2022-11-05T19:30:18.173Z,7.55
2022-11-05T19:32:47.361Z,7.30
2022-11-05T19:35:18.852Z,7.82
2022-11-05T19:37:53.590Z,7.68
2022-11-05T19:40:22.664Z,7.68
2022-11-05T19:42:52.679Z,7.00
2022-11-05T19:45:43.591Z,6.68
2022-11-05T19:48:19.085Z,7.70
2022-11-05T19:50:52.195Z,7.40
2022-11-05T19:53:23.245Z,7.35
2022-11-05T19:55:52.209Z,6.70
2022-11-05T19:58:21.214Z,7.13
2022-11-05T20:00:51.636Z,6.72
2022-11-05T20:03:21.420Z,6.50
2022-11-05T20:05:51.199Z,6.20
2022-11-05T20:08:22.154Z,6.15
2022-11-05T20:10:59.828Z,6.15
2022-11-05T20:13:30.416Z,6.30
2022-11-05T20:16:00.060Z,5.55
2022-11-05T20:18:30.168Z,5.50
2022-11-05T20:21:08.610Z,6.03
2022-11-05T20:23:39.232Z,5.47
2022-11-05T20:26:10.553Z,5.45
2022-11-05T20:28:40.918Z,5.35
2022-11-05T20:31:13.585Z,5.68
2022-11-05T20:33:44.358Z,5.55
2022-11-05T20:36:19.153Z,5.45
2022-11-05T20:38:53.190Z,5.68
2022-11-05T20:41:22.461Z,5.03
2022-11-05T20:43:51.816Z,5.38
2022-11-05T20:46:23.802Z,5.40
2022-11-05T20:48:53.264Z,6.03
2022-11-05T20:51:25.835Z,5.55
2022-11-05T20:54:00.053Z,5.47
2022-11-05T20:56:31.000Z,4.82
2022-11-05T20:59:03.048Z,5.00
2022-11-05T21:01:35.636Z,5.32
2022-11-05T21:04:05.133Z,5.90
2022-11-05T21:06:36.729Z,5.93
2022-11-05T21:09:07.432Z,5.32
2022-11-05T21:11:52.386Z,5.90
2022-11-05T21:14:25.371Z,5.43
2022-11-05T21:16:58.249Z,6.60
2022-11-05T21:19:29.609Z,5.45
2022-11-05T21:22:02.702Z,5.63
2022-11-05T21:24:33.729Z,5.45
2022-11-05T21:27:03.475Z,5.80
2022-11-05T21:29:40.719Z,5.53
2022-11-05T21:32:23.540Z,6.28
2022-11-05T21:34:54.615Z,6.30
2022-11-05T21:37:24.119Z,6.30
2022-11-05T21:39:57.415Z,5.65
2022-11-05T21:42:26.446Z,5.50
2022-11-05T21:44:59.993Z,5.57
2022-11-05T21:47:30.583Z,5.50
2022-11-05T21:50:00.274Z,5.85
2022-11-05T21:52:46.095Z,5.63
2022-11-05T21:58:35.070Z,6.00
2022-11-05T22:01:05.196Z,5.55
2022-11-05T22:03:34.043Z,5.60
2022-11-05T22:06:04.153Z,5.55
2022-11-05T22:08:35.276Z,6.88
2022-11-05T22:11:07.313Z,6.10
2022-11-05T22:13:38.338Z,5.45
2022-11-05T22:16:11.671Z,5.72
2022-11-05T22:18:43.206Z,6.00
2022-11-05T22:21:19.722Z,5.85
2022-11-05T22:23:48.464Z,4.65
2022-11-05T22:26:19.074Z,5.57
2022-11-05T22:28:52.405Z,5.90
2022-11-05T22:31:23.352Z,4.80
2022-11-05T22:33:55.583Z,5.38
2022-11-05T22:36:25.384Z,5.57
2022-11-05T22:38:57.292Z,7.15
2022-11-05T22:41:28.293Z,6.57
2022-11-05T22:43:57.714Z,5.82
2022-11-05T22:46:28.629Z,5.53
2022-11-05T22:49:00.037Z,6.13
2022-11-05T22:51:32.297Z,5.75
2022-11-05T22:54:04.668Z,6.13
2022-11-05T22:56:38.052Z,5.43
2022-11-05T22:59:09.664Z,5.63
2022-11-05T23:01:38.739Z,6.20
2022-11-05T23:04:08.639Z,5.03
2022-11-05T23:06:54.833Z,5.75
2022-11-05T23:09:43.863Z,5.70
2022-11-05T23:12:25.508Z,5.20
2022-11-05T23:14:55.285Z,5.32
2022-11-05T23:17:42.462Z,5.53
2022-11-05T23:20:33.892Z,5.50
2022-11-05T23:23:21.380Z,4.85
2022-11-05T23:34:47.016Z,5.32
2022-11-05T23:37:34.020Z,5.53
2022-11-05T23:40:04.084Z,5.82
2022-11-05T23:42:50.343Z,5.95
2022-11-05T23:45:38.291Z,5.40
2022-11-05T23:48:20.072Z,4.93
2022-11-05T23:50:53.294Z,5.15
2022-11-05T23:53:22.818Z,4.82
2022-11-05T23:55:55.091Z,5.60
2022-11-05T23:58:25.038Z,5.60
